sensor_id;sensor_type;location;lat;lon;timestamp;temperature;humidity
23691;DHT22;43867;50.836;4.364;2022-07-15T00:00:08;16.20;99.90
23691;DHT22;43867;50.836;4.364;2022-07-15T00:02:36;16.20;99.90
23691;DHT22;43867;50.836;4.364;2022-07-15T00:05:02;16.20;99.90
23691;DHT22;43867;50.836;4.364;2022-07-15T00:07:27;16.10;99.90
23691;DHT22;43867;50.836;4.364;2022-07-15T00:09:53;16.10;99.90
23691;DHT22;43867;50.836;4.364;2022-07-15T00:12:37;16.00;99.90
23691;DHT22;43867;50.836;4.364;2022-07-15T00:15:03;16.10;99.90
23691;DHT22;43867;50.836;4.364;2022-07-15T00:17:29;16.20;99.90
23691;DHT22;43867;50.836;4.364;2022-07-15T00:19:54;16.10;99.90
23691;DHT22;43867;50.836;4.364;2022-07-15T00:22:20;16.10;99.90
23691;DHT22;43867;50.836;4.364;2022-07-15T00:24:46;16.20;99.90
23691;DHT22;43867;50.836;4.364;2022-07-15T00:27:11;16.20;99.90
23691;DHT22;43867;50.836;4.364;2022-07-15T00:29:37;16.00;99.90
23691;DHT22;43867;50.836;4.364;2022-07-15T00:32:03;16.20;99.90
23691;DHT22;43867;50.836;4.364;2022-07-15T00:34:29;16.20;99.90
23691;DHT22;43867;50.836;4.364;2022-07-15T00:36:54;16.10;99.90
23691;DHT22;43867;50.836;4.364;2022-07-15T00:39:21;16.10;99.90
23691;DHT22;43867;50.836;4.364;2022-07-15T00:41:47;15.90;99.90
23691;DHT22;43867;50.836;4.364;2022-07-15T00:44:14;15.70;99.90
23691;DHT22;43867;50.836;4.364;2022-07-15T00:46:39;15.90;99.90
23691;DHT22;43867;50.836;4.364;2022-07-15T00:49:07;15.80;99.90
23691;DHT22;43867;50.836;4.364;2022-07-15T00:51:51;15.80;99.90
23691;DHT22;43867;50.836;4.364;2022-07-15T00:54:18;15.80;99.90
23691;DHT22;43867;50.836;4.364;2022-07-15T00:56:51;15.80;99.90
23691;DHT22;43867;50.836;4.364;2022-07-15T00:59:19;16.00;99.90
23691;DHT22;43867;50.836;4.364;2022-07-15T01:01:45;15.90;99.90
23691;DHT22;43867;50.836;4.364;2022-07-15T01:04:11;16.00;99.90
23691;DHT22;43867;50.836;4.364;2022-07-15T01:06:38;15.90;99.90
23691;DHT22;43867;50.836;4.364;2022-07-15T01:09:04;15.80;99.90
23691;DHT22;43867;50.836;4.364;2022-07-15T01:11:29;15.70;99.90
23691;DHT22;43867;50.836;4.364;2022-07-15T01:13:56;15.80;99.90
23691;DHT22;43867;50.836;4.364;2022-07-15T01:16:22;15.80;99.90
23691;DHT22;43867;50.836;4.364;2022-07-15T01:18:47;16.00;99.90
23691;DHT22;43867;50.836;4.364;2022-07-15T01:21:13;15.90;99.90
23691;DHT22;43867;50.836;4.364;2022-07-15T01:23:39;16.00;99.90
23691;DHT22;43867;50.836;4.364;2022-07-15T01:26:11;16.00;99.90
23691;DHT22;43867;50.836;4.364;2022-07-15T01:28:37;15.90;99.90
23691;DHT22;43867;50.836;4.364;2022-07-15T01:31:02;15.80;99.90
23691;DHT22;43867;50.836;4.364;2022-07-15T01:33:33;15.70;99.90
23691;DHT22;43867;50.836;4.364;2022-07-15T01:36:00;15.70;99.90
23691;DHT22;43867;50.836;4.364;2022-07-15T01:38:27;15.80;99.90
23691;DHT22;43867;50.836;4.364;2022-07-15T01:40:54;15.70;99.90
23691;DHT22;43867;50.836;4.364;2022-07-15T01:43:22;15.70;99.90
23691;DHT22;43867;50.836;4.364;2022-07-15T01:45:48;15.80;99.90
23691;DHT22;43867;50.836;4.364;2022-07-15T01:48:14;15.70;99.90
23691;DHT22;43867;50.836;4.364;2022-07-15T01:50:59;15.80;99.90
23691;DHT22;43867;50.836;4.364;2022-07-15T01:53:26;15.90;99.90
23691;DHT22;43867;50.836;4.364;2022-07-15T01:55:51;15.80;99.90
23691;DHT22;43867;50.836;4.364;2022-07-15T01:58:18;15.70;99.90
23691;DHT22;43867;50.836;4.364;2022-07-15T02:00:47;15.60;99.90
23691;DHT22;43867;50.836;4.364;2022-07-15T02:03:15;15.60;99.90
23691;DHT22;43867;50.836;4.364;2022-07-15T02:05:41;15.60;99.90
23691;DHT22;43867;50.836;4.364;2022-07-15T02:08:08;15.60;99.90
23691;DHT22;43867;50.836;4.364;2022-07-15T02:10:36;15.50;99.90
23691;DHT22;43867;50.836;4.364;2022-07-15T02:13:11;15.60;99.90
23691;DHT22;43867;50.836;4.364;2022-07-15T02:15:38;15.70;99.90
23691;DHT22;43867;50.836;4.364;2022-07-15T02:18:07;15.90;99.90
23691;DHT22;43867;50.836;4.364;2022-07-15T02:20:34;15.80;99.90
23691;DHT22;43867;50.836;4.364;2022-07-15T02:22:59;15.50;99.90
23691;DHT22;43867;50.836;4.364;2022-07-15T02:25:30;15.40;99.90
23691;DHT22;43867;50.836;4.364;2022-07-15T02:28:00;15.50;99.90
23691;DHT22;43867;50.836;4.364;2022-07-15T02:30:30;15.70;99.90
23691;DHT22;43867;50.836;4.364;2022-07-15T02:32:56;15.60;99.90
23691;DHT22;43867;50.836;4.364;2022-07-15T02:35:22;15.70;99.90
23691;DHT22;43867;50.836;4.364;2022-07-15T02:37:48;15.50;99.90
23691;DHT22;43867;50.836;4.364;2022-07-15T02:40:13;15.50;99.90
23691;DHT22;43867;50.836;4.364;2022-07-15T02:42:39;15.50;99.90
23691;DHT22;43867;50.836;4.364;2022-07-15T02:45:05;15.40;99.90
23691;DHT22;43867;50.836;4.364;2022-07-15T02:47:31;15.50;99.90
23691;DHT22;43867;50.836;4.364;2022-07-15T02:49:56;15.40;99.90
23691;DHT22;43867;50.836;4.364;2022-07-15T02:52:22;15.50;99.90
23691;DHT22;43867;50.836;4.364;2022-07-15T02:54:48;15.50;99.90
23691;DHT22;43867;50.836;4.364;2022-07-15T02:57:13;15.50;99.90
23691;DHT22;43867;50.836;4.364;2022-07-15T02:59:39;15.50;99.90
23691;DHT22;43867;50.836;4.364;2022-07-15T03:02:05;15.60;99.90
23691;DHT22;43867;50.836;4.364;2022-07-15T03:04:31;15.50;99.90
23691;DHT22;43867;50.836;4.364;2022-07-15T03:06:56;15.50;99.90
23691;DHT22;43867;50.836;4.364;2022-07-15T03:09:23;15.50;99.90
23691;DHT22;43867;50.836;4.364;2022-07-15T03:11:48;15.50;99.90
23691;DHT22;43867;50.836;4.364;2022-07-15T03:14:14;15.50;99.90
23691;DHT22;43867;50.836;4.364;2022-07-15T03:16:40;15.50;99.90
23691;DHT22;43867;50.836;4.364;2022-07-15T03:19:05;15.60;99.90
23691;DHT22;43867;50.836;4.364;2022-07-15T03:21:31;15.60;99.90
23691;DHT22;43867;50.836;4.364;2022-07-15T03:23:56;15.60;99.90
23691;DHT22;43867;50.836;4.364;2022-07-15T03:26:22;15.70;99.90
23691;DHT22;43867;50.836;4.364;2022-07-15T03:28:48;15.60;99.90
23691;DHT22;43867;50.836;4.364;2022-07-15T03:31:14;15.50;99.90
23691;DHT22;43867;50.836;4.364;2022-07-15T03:33:40;15.40;99.90
23691;DHT22;43867;50.836;4.364;2022-07-15T03:36:05;15.50;99.90
23691;DHT22;43867;50.836;4.364;2022-07-15T03:38:31;15.60;99.90
23691;DHT22;43867;50.836;4.364;2022-07-15T03:40:57;15.60;99.90
23691;DHT22;43867;50.836;4.364;2022-07-15T03:43:23;15.70;99.90
23691;DHT22;43867;50.836;4.364;2022-07-15T03:45:52;15.80;99.90
23691;DHT22;43867;50.836;4.364;2022-07-15T03:48:18;15.80;99.90
23691;DHT22;43867;50.836;4.364;2022-07-15T03:50:44;15.80;99.90
23691;DHT22;43867;50.836;4.364;2022-07-15T03:53:09;15.60;99.90
23691;DHT22;43867;50.836;4.364;2022-07-15T03:55:35;15.60;99.90
23691;DHT22;43867;50.836;4.364;2022-07-15T04:00:31;15.60;99.90
23691;DHT22;43867;50.836;4.364;2022-07-15T04:02:57;15.70;99.90
23691;DHT22;43867;50.836;4.364;2022-07-15T04:05:22;15.70;99.90
23691;DHT22;43867;50.836;4.364;2022-07-15T04:07:48;15.70;99.90
23691;DHT22;43867;50.836;4.364;2022-07-15T04:10:15;15.60;99.90
23691;DHT22;43867;50.836;4.364;2022-07-15T04:12:40;15.60;99.90
23691;DHT22;43867;50.836;4.364;2022-07-15T04:15:06;15.70;99.90
23691;DHT22;43867;50.836;4.364;2022-07-15T04:17:32;15.60;99.90
23691;DHT22;43867;50.836;4.364;2022-07-15T04:19:58;15.70;99.90
23691;DHT22;43867;50.836;4.364;2022-07-15T04:22:25;15.60;99.90
23691;DHT22;43867;50.836;4.364;2022-07-15T04:24:51;15.60;99.90
23691;DHT22;43867;50.836;4.364;2022-07-15T04:27:17;15.70;99.90
23691;DHT22;43867;50.836;4.364;2022-07-15T04:29:43;15.90;99.90
23691;DHT22;43867;50.836;4.364;2022-07-15T04:32:08;16.20;99.90
23691;DHT22;43867;50.836;4.364;2022-07-15T04:34:34;16.40;99.90
23691;DHT22;43867;50.836;4.364;2022-07-15T04:37:00;16.30;99.90
23691;DHT22;43867;50.836;4.364;2022-07-15T04:39:26;16.30;99.90
23691;DHT22;43867;50.836;4.364;2022-07-15T04:41:53;16.40;99.90
23691;DHT22;43867;50.836;4.364;2022-07-15T04:44:18;16.40;99.90
23691;DHT22;43867;50.836;4.364;2022-07-15T04:46:44;16.40;99.90
23691;DHT22;43867;50.836;4.364;2022-07-15T04:49:12;16.40;99.90
23691;DHT22;43867;50.836;4.364;2022-07-15T04:51:58;16.50;99.90
23691;DHT22;43867;50.836;4.364;2022-07-15T04:54:23;16.50;99.90
23691;DHT22;43867;50.836;4.364;2022-07-15T04:56:51;16.70;99.90
23691;DHT22;43867;50.836;4.364;2022-07-15T04:59:16;16.60;99.90
23691;DHT22;43867;50.836;4.364;2022-07-15T05:01:42;16.40;99.90
23691;DHT22;43867;50.836;4.364;2022-07-15T05:04:08;16.30;99.90
23691;DHT22;43867;50.836;4.364;2022-07-15T05:06:35;16.20;99.90
23691;DHT22;43867;50.836;4.364;2022-07-15T05:09:02;16.30;99.90
23691;DHT22;43867;50.836;4.364;2022-07-15T05:11:28;16.10;99.90
23691;DHT22;43867;50.836;4.364;2022-07-15T05:13:54;16.00;99.90
23691;DHT22;43867;50.836;4.364;2022-07-15T05:16:20;16.10;99.90
23691;DHT22;43867;50.836;4.364;2022-07-15T05:18:46;16.20;99.90
23691;DHT22;43867;50.836;4.364;2022-07-15T05:21:12;16.40;99.90
23691;DHT22;43867;50.836;4.364;2022-07-15T05:23:38;16.20;99.90
23691;DHT22;43867;50.836;4.364;2022-07-15T05:26:09;16.40;99.90
23691;DHT22;43867;50.836;4.364;2022-07-15T05:28:37;16.50;99.90
23691;DHT22;43867;50.836;4.364;2022-07-15T05:31:04;16.60;99.90
23691;DHT22;43867;50.836;4.364;2022-07-15T05:33:30;16.70;99.90
23691;DHT22;43867;50.836;4.364;2022-07-15T05:35:56;16.90;99.90
23691;DHT22;43867;50.836;4.364;2022-07-15T05:38:23;17.10;99.90
23691;DHT22;43867;50.836;4.364;2022-07-15T05:40:49;17.40;99.90
23691;DHT22;43867;50.836;4.364;2022-07-15T05:43:15;17.50;99.90
23691;DHT22;43867;50.836;4.364;2022-07-15T05:45:41;17.60;99.90
23691;DHT22;43867;50.836;4.364;2022-07-15T05:48:07;17.70;99.90
23691;DHT22;43867;50.836;4.364;2022-07-15T05:50:33;17.80;99.90
23691;DHT22;43867;50.836;4.364;2022-07-15T05:52:59;17.70;99.90
23691;DHT22;43867;50.836;4.364;2022-07-15T05:55:25;18.00;99.90
23691;DHT22;43867;50.836;4.364;2022-07-15T05:57:51;18.50;99.90
23691;DHT22;43867;50.836;4.364;2022-07-15T06:00:17;18.80;99.90
23691;DHT22;43867;50.836;4.364;2022-07-15T06:02:43;19.40;99.90
23691;DHT22;43867;50.836;4.364;2022-07-15T06:05:09;19.60;99.90
23691;DHT22;43867;50.836;4.364;2022-07-15T06:07:35;19.70;99.90
23691;DHT22;43867;50.836;4.364;2022-07-15T06:10:01;19.50;99.90
23691;DHT22;43867;50.836;4.364;2022-07-15T06:12:27;19.20;99.90
23691;DHT22;43867;50.836;4.364;2022-07-15T06:14:53;18.60;99.90
23691;DHT22;43867;50.836;4.364;2022-07-15T06:17:21;18.80;99.90
23691;DHT22;43867;50.836;4.364;2022-07-15T06:19:49;18.70;99.90
23691;DHT22;43867;50.836;4.364;2022-07-15T06:22:15;19.00;99.90
23691;DHT22;43867;50.836;4.364;2022-07-15T06:24:41;19.30;99.90
23691;DHT22;43867;50.836;4.364;2022-07-15T06:27:06;19.40;99.90
23691;DHT22;43867;50.836;4.364;2022-07-15T06:29:32;19.80;99.90
23691;DHT22;43867;50.836;4.364;2022-07-15T06:31:58;20.30;99.90
23691;DHT22;43867;50.836;4.364;2022-07-15T06:34:30;20.60;99.90
23691;DHT22;43867;50.836;4.364;2022-07-15T06:36:58;20.70;99.90
23691;DHT22;43867;50.836;4.364;2022-07-15T06:39:24;20.70;99.90
23691;DHT22;43867;50.836;4.364;2022-07-15T06:41:50;20.20;99.90
23691;DHT22;43867;50.836;4.364;2022-07-15T06:44:19;20.10;99.90
23691;DHT22;43867;50.836;4.364;2022-07-15T06:46:45;20.20;99.90
23691;DHT22;43867;50.836;4.364;2022-07-15T06:49:10;20.80;99.90
23691;DHT22;43867;50.836;4.364;2022-07-15T06:51:36;20.70;99.90
23691;DHT22;43867;50.836;4.364;2022-07-15T06:54:01;20.20;99.90
23691;DHT22;43867;50.836;4.364;2022-07-15T06:56:27;19.70;99.90
23691;DHT22;43867;50.836;4.364;2022-07-15T06:58:54;19.30;99.90
23691;DHT22;43867;50.836;4.364;2022-07-15T07:01:20;19.40;99.90
23691;DHT22;43867;50.836;4.364;2022-07-15T07:03:45;19.20;99.90
23691;DHT22;43867;50.836;4.364;2022-07-15T07:06:11;19.10;99.90
23691;DHT22;43867;50.836;4.364;2022-07-15T07:08:37;19.20;99.90
23691;DHT22;43867;50.836;4.364;2022-07-15T07:11:02;20.00;99.90
23691;DHT22;43867;50.836;4.364;2022-07-15T07:13:28;20.40;99.90
23691;DHT22;43867;50.836;4.364;2022-07-15T07:15:53;20.60;99.90
23691;DHT22;43867;50.836;4.364;2022-07-15T07:18:19;20.70;99.40
23691;DHT22;43867;50.836;4.364;2022-07-15T07:20:44;21.10;98.50
23691;DHT22;43867;50.836;4.364;2022-07-15T07:23:10;21.30;96.80
23691;DHT22;43867;50.836;4.364;2022-07-15T07:25:37;20.90;99.20
23691;DHT22;43867;50.836;4.364;2022-07-15T07:28:03;21.10;99.00
23691;DHT22;43867;50.836;4.364;2022-07-15T07:30:29;21.10;97.70
23691;DHT22;43867;50.836;4.364;2022-07-15T07:32:55;21.10;96.00
23691;DHT22;43867;50.836;4.364;2022-07-15T07:35:20;20.50;98.30
23691;DHT22;43867;50.836;4.364;2022-07-15T07:37:46;20.90;98.10
23691;DHT22;43867;50.836;4.364;2022-07-15T07:40:12;20.60;97.30
23691;DHT22;43867;50.836;4.364;2022-07-15T07:42:39;20.30;96.50
23691;DHT22;43867;50.836;4.364;2022-07-15T07:45:05;20.30;97.80
23691;DHT22;43867;50.836;4.364;2022-07-15T07:47:34;20.50;98.00
23691;DHT22;43867;50.836;4.364;2022-07-15T07:50:08;20.40;99.00
23691;DHT22;43867;50.836;4.364;2022-07-15T07:52:35;20.80;99.30
23691;DHT22;43867;50.836;4.364;2022-07-15T07:55:01;21.10;97.40
23691;DHT22;43867;50.836;4.364;2022-07-15T07:57:26;21.70;95.40
23691;DHT22;43867;50.836;4.364;2022-07-15T07:59:52;21.80;95.10
23691;DHT22;43867;50.836;4.364;2022-07-15T08:02:17;22.10;94.10
23691;DHT22;43867;50.836;4.364;2022-07-15T08:04:44;22.20;93.80
23691;DHT22;43867;50.836;4.364;2022-07-15T08:07:09;21.90;94.10
23691;DHT22;43867;50.836;4.364;2022-07-15T08:09:36;21.40;94.70
23691;DHT22;43867;50.836;4.364;2022-07-15T08:12:02;21.40;94.50
23691;DHT22;43867;50.836;4.364;2022-07-15T08:14:28;22.10;93.30
23691;DHT22;43867;50.836;4.364;2022-07-15T08:16:54;22.20;92.30
23691;DHT22;43867;50.836;4.364;2022-07-15T08:19:19;22.60;92.30
23691;DHT22;43867;50.836;4.364;2022-07-15T08:21:46;22.90;87.10
23691;DHT22;43867;50.836;4.364;2022-07-15T08:24:12;23.40;83.70
23691;DHT22;43867;50.836;4.364;2022-07-15T08:26:38;23.40;81.10
23691;DHT22;43867;50.836;4.364;2022-07-15T08:29:04;22.90;82.00
23691;DHT22;43867;50.836;4.364;2022-07-15T08:31:30;22.80;84.80
23691;DHT22;43867;50.836;4.364;2022-07-15T08:33:56;22.50;80.80
23691;DHT22;43867;50.836;4.364;2022-07-15T08:36:22;21.80;81.40
23691;DHT22;43867;50.836;4.364;2022-07-15T08:38:48;20.80;85.10
23691;DHT22;43867;50.836;4.364;2022-07-15T08:41:16;20.80;84.60
23691;DHT22;43867;50.836;4.364;2022-07-15T08:43:42;21.00;88.60
23691;DHT22;43867;50.836;4.364;2022-07-15T08:46:08;20.90;86.70
23691;DHT22;43867;50.836;4.364;2022-07-15T08:48:35;21.00;86.90
23691;DHT22;43867;50.836;4.364;2022-07-15T08:51:02;20.90;84.50
23691;DHT22;43867;50.836;4.364;2022-07-15T08:53:28;21.00;88.10
23691;DHT22;43867;50.836;4.364;2022-07-15T08:56:02;21.70;85.40
23691;DHT22;43867;50.836;4.364;2022-07-15T08:58:28;21.90;79.30
23691;DHT22;43867;50.836;4.364;2022-07-15T09:00:54;21.60;77.20
23691;DHT22;43867;50.836;4.364;2022-07-15T09:05:52;22.50;79.80
23691;DHT22;43867;50.836;4.364;2022-07-15T09:08:18;23.30;76.60
23691;DHT22;43867;50.836;4.364;2022-07-15T09:10:57;23.70;68.60
23691;DHT22;43867;50.836;4.364;2022-07-15T09:13:33;23.60;68.20
23691;DHT22;43867;50.836;4.364;2022-07-15T09:16:00;23.20;67.80
23691;DHT22;43867;50.836;4.364;2022-07-15T09:18:27;21.80;74.90
23691;DHT22;43867;50.836;4.364;2022-07-15T09:21:02;22.40;75.90
23691;DHT22;43867;50.836;4.364;2022-07-15T09:23:29;22.40;76.50
23691;DHT22;43867;50.836;4.364;2022-07-15T09:28:44;23.10;70.20
23691;DHT22;43867;50.836;4.364;2022-07-15T09:31:10;23.10;67.10
23691;DHT22;43867;50.836;4.364;2022-07-15T09:33:58;23.50;66.60
23691;DHT22;43867;50.836;4.364;2022-07-15T09:36:25;23.50;64.20
23691;DHT22;43867;50.836;4.364;2022-07-15T09:38:53;23.60;62.50
23691;DHT22;43867;50.836;4.364;2022-07-15T09:43:59;24.20;60.60
23691;DHT22;43867;50.836;4.364;2022-07-15T09:46:29;24.50;62.40
23691;DHT22;43867;50.836;4.364;2022-07-15T09:48:55;24.50;59.40
23691;DHT22;43867;50.836;4.364;2022-07-15T09:51:21;24.70;58.50
23691;DHT22;43867;50.836;4.364;2022-07-15T09:53:47;24.90;57.90
23691;DHT22;43867;50.836;4.364;2022-07-15T09:56:14;24.80;58.20
23691;DHT22;43867;50.836;4.364;2022-07-15T09:58:41;25.50;56.90
23691;DHT22;43867;50.836;4.364;2022-07-15T10:01:08;25.30;56.20
23691;DHT22;43867;50.836;4.364;2022-07-15T10:03:40;25.20;55.20
23691;DHT22;43867;50.836;4.364;2022-07-15T10:06:09;25.10;55.70
23691;DHT22;43867;50.836;4.364;2022-07-15T10:08:35;25.20;54.30
23691;DHT22;43867;50.836;4.364;2022-07-15T10:11:01;24.50;54.40
23691;DHT22;43867;50.836;4.364;2022-07-15T10:13:42;24.10;55.70
23691;DHT22;43867;50.836;4.364;2022-07-15T10:21:44;24.60;56.60
23691;DHT22;43867;50.836;4.364;2022-07-15T10:24:17;24.50;55.50
23691;DHT22;43867;50.836;4.364;2022-07-15T10:27:05;24.20;56.00
23691;DHT22;43867;50.836;4.364;2022-07-15T10:29:37;24.30;55.40
23691;DHT22;43867;50.836;4.364;2022-07-15T10:32:07;23.90;56.20
23691;DHT22;43867;50.836;4.364;2022-07-15T10:34:34;23.70;56.70
23691;DHT22;43867;50.836;4.364;2022-07-15T10:37:01;23.90;55.60
23691;DHT22;43867;50.836;4.364;2022-07-15T10:42:13;24.20;54.50
23691;DHT22;43867;50.836;4.364;2022-07-15T10:47:25;23.90;54.70
23691;DHT22;43867;50.836;4.364;2022-07-15T10:49:50;23.50;55.40
23691;DHT22;43867;50.836;4.364;2022-07-15T10:54:48;23.50;56.00
23691;DHT22;43867;50.836;4.364;2022-07-15T10:57:15;23.50;56.40
23691;DHT22;43867;50.836;4.364;2022-07-15T11:02:40;23.50;55.90
23691;DHT22;43867;50.836;4.364;2022-07-15T11:05:27;23.20;56.60
23691;DHT22;43867;50.836;4.364;2022-07-15T11:07:56;23.10;55.70
23691;DHT22;43867;50.836;4.364;2022-07-15T11:10:22;22.60;56.30
23691;DHT22;43867;50.836;4.364;2022-07-15T11:12:55;22.80;55.90
23691;DHT22;43867;50.836;4.364;2022-07-15T11:15:22;22.90;56.10
23691;DHT22;43867;50.836;4.364;2022-07-15T11:17:55;23.10;55.80
23691;DHT22;43867;50.836;4.364;2022-07-15T11:20:27;23.30;56.20
23691;DHT22;43867;50.836;4.364;2022-07-15T11:22:57;23.40;55.70
23691;DHT22;43867;50.836;4.364;2022-07-15T11:25:31;23.60;55.00
23691;DHT22;43867;50.836;4.364;2022-07-15T11:27:59;23.80;54.30
23691;DHT22;43867;50.836;4.364;2022-07-15T11:30:27;23.40;54.30
23691;DHT22;43867;50.836;4.364;2022-07-15T11:33:00;23.80;55.40
23691;DHT22;43867;50.836;4.364;2022-07-15T11:35:26;23.70;53.70
23691;DHT22;43867;50.836;4.364;2022-07-15T11:37:57;23.70;53.30
23691;DHT22;43867;50.836;4.364;2022-07-15T11:40:24;23.80;51.90
23691;DHT22;43867;50.836;4.364;2022-07-15T11:43:15;23.50;51.50
23691;DHT22;43867;50.836;4.364;2022-07-15T11:46:00;23.10;53.30
23691;DHT22;43867;50.836;4.364;2022-07-15T11:48:29;22.70;54.10
23691;DHT22;43867;50.836;4.364;2022-07-15T11:51:00;23.10;53.60
23691;DHT22;43867;50.836;4.364;2022-07-15T11:53:26;23.20;52.80
23691;DHT22;43867;50.836;4.364;2022-07-15T11:55:54;23.10;53.00
23691;DHT22;43867;50.836;4.364;2022-07-15T11:58:37;23.10;53.20
23691;DHT22;43867;50.836;4.364;2022-07-15T12:01:04;23.20;53.30
23691;DHT22;43867;50.836;4.364;2022-07-15T12:03:34;23.60;53.50
23691;DHT22;43867;50.836;4.364;2022-07-15T12:06:01;23.90;52.10
23691;DHT22;43867;50.836;4.364;2022-07-15T12:08:34;24.10;51.40
23691;DHT22;43867;50.836;4.364;2022-07-15T12:11:00;24.40;52.00
23691;DHT22;43867;50.836;4.364;2022-07-15T12:13:25;24.60;51.30
23691;DHT22;43867;50.836;4.364;2022-07-15T12:15:53;24.60;51.10
23691;DHT22;43867;50.836;4.364;2022-07-15T12:18:19;24.50;52.00
23691;DHT22;43867;50.836;4.364;2022-07-15T12:20:49;24.60;51.40
23691;DHT22;43867;50.836;4.364;2022-07-15T12:23:16;24.40;50.60
23691;DHT22;43867;50.836;4.364;2022-07-15T12:25:42;24.40;49.10
23691;DHT22;43867;50.836;4.364;2022-07-15T12:28:08;24.40;50.00
23691;DHT22;43867;50.836;4.364;2022-07-15T12:30:36;24.50;50.10
23691;DHT22;43867;50.836;4.364;2022-07-15T12:35:40;24.80;50.20
23691;DHT22;43867;50.836;4.364;2022-07-15T12:38:06;24.80;49.20
23691;DHT22;43867;50.836;4.364;2022-07-15T12:40:32;24.50;49.90
23691;DHT22;43867;50.836;4.364;2022-07-15T12:42:57;24.40;50.10
23691;DHT22;43867;50.836;4.364;2022-07-15T12:45:25;24.40;50.80
23691;DHT22;43867;50.836;4.364;2022-07-15T12:48:10;24.60;50.60
23691;DHT22;43867;50.836;4.364;2022-07-15T12:53:20;24.70;51.40
23691;DHT22;43867;50.836;4.364;2022-07-15T12:55:49;24.80;50.20
23691;DHT22;43867;50.836;4.364;2022-07-15T12:58:16;25.00;48.30
23691;DHT22;43867;50.836;4.364;2022-07-15T13:00:45;24.80;48.40
23691;DHT22;43867;50.836;4.364;2022-07-15T13:05:51;24.40;49.30
23691;DHT22;43867;50.836;4.364;2022-07-15T13:11:00;24.30;49.00
23691;DHT22;43867;50.836;4.364;2022-07-15T13:13:30;24.30;48.80
23691;DHT22;43867;50.836;4.364;2022-07-15T13:15:56;24.40;49.10
23691;DHT22;43867;50.836;4.364;2022-07-15T13:18:27;24.50;49.20
23691;DHT22;43867;50.836;4.364;2022-07-15T13:20:54;24.60;49.00
23691;DHT22;43867;50.836;4.364;2022-07-15T13:26:38;24.70;46.90
23691;DHT22;43867;50.836;4.364;2022-07-15T13:29:09;24.70;46.80
23691;DHT22;43867;50.836;4.364;2022-07-15T13:31:41;24.60;47.80
23691;DHT22;43867;50.836;4.364;2022-07-15T13:34:07;24.80;47.40
23691;DHT22;43867;50.836;4.364;2022-07-15T13:36:33;24.60;47.60
23691;DHT22;43867;50.836;4.364;2022-07-15T13:39:04;24.60;48.00
23691;DHT22;43867;50.836;4.364;2022-07-15T13:41:34;24.70;47.60
23691;DHT22;43867;50.836;4.364;2022-07-15T13:44:00;24.80;48.00
23691;DHT22;43867;50.836;4.364;2022-07-15T13:46:25;25.00;47.60
23691;DHT22;43867;50.836;4.364;2022-07-15T13:51:26;25.50;46.50
23691;DHT22;43867;50.836;4.364;2022-07-15T13:53:56;25.50;46.60
23691;DHT22;43867;50.836;4.364;2022-07-15T13:56:22;25.20;46.60
23691;DHT22;43867;50.836;4.364;2022-07-15T13:58:50;25.40;47.00
23691;DHT22;43867;50.836;4.364;2022-07-15T14:01:29;25.50;46.90
23691;DHT22;43867;50.836;4.364;2022-07-15T14:06:52;25.20;47.20
23691;DHT22;43867;50.836;4.364;2022-07-15T14:12:01;25.40;47.60
23691;DHT22;43867;50.836;4.364;2022-07-15T14:14:27;25.40;47.20
23691;DHT22;43867;50.836;4.364;2022-07-15T14:16:55;25.10;47.20
23691;DHT22;43867;50.836;4.364;2022-07-15T14:19:22;25.40;47.40
23691;DHT22;43867;50.836;4.364;2022-07-15T14:21:50;25.40;46.80
23691;DHT22;43867;50.836;4.364;2022-07-15T14:24:19;25.60;46.60
23691;DHT22;43867;50.836;4.364;2022-07-15T14:26:46;25.90;46.70
23691;DHT22;43867;50.836;4.364;2022-07-15T14:29:12;25.60;47.10
23691;DHT22;43867;50.836;4.364;2022-07-15T14:31:39;25.50;47.70
23691;DHT22;43867;50.836;4.364;2022-07-15T14:34:09;25.70;47.60
23691;DHT22;43867;50.836;4.364;2022-07-15T14:36:41;25.90;46.90
23691;DHT22;43867;50.836;4.364;2022-07-15T14:39:17;26.10;46.10
23691;DHT22;43867;50.836;4.364;2022-07-15T14:41:52;25.80;46.30
23691;DHT22;43867;50.836;4.364;2022-07-15T14:44:35;25.80;46.80
23691;DHT22;43867;50.836;4.364;2022-07-15T14:47:02;25.60;46.50
23691;DHT22;43867;50.836;4.364;2022-07-15T14:49:28;25.30;47.00
23691;DHT22;43867;50.836;4.364;2022-07-15T14:51:54;25.20;47.30
23691;DHT22;43867;50.836;4.364;2022-07-15T14:54:20;25.30;46.80
23691;DHT22;43867;50.836;4.364;2022-07-15T14:56:49;25.10;47.00
23691;DHT22;43867;50.836;4.364;2022-07-15T14:59:14;25.10;47.10
23691;DHT22;43867;50.836;4.364;2022-07-15T15:01:41;25.20;47.60
23691;DHT22;43867;50.836;4.364;2022-07-15T15:04:07;25.50;47.30
23691;DHT22;43867;50.836;4.364;2022-07-15T15:06:35;25.90;46.80
23691;DHT22;43867;50.836;4.364;2022-07-15T15:09:09;25.90;46.50
23691;DHT22;43867;50.836;4.364;2022-07-15T15:11:38;25.80;46.30
23691;DHT22;43867;50.836;4.364;2022-07-15T15:14:05;25.90;46.30
23691;DHT22;43867;50.836;4.364;2022-07-15T15:16:33;25.60;46.90
23691;DHT22;43867;50.836;4.364;2022-07-15T15:18:58;25.50;47.00
23691;DHT22;43867;50.836;4.364;2022-07-15T15:21:27;25.50;46.20
23691;DHT22;43867;50.836;4.364;2022-07-15T15:23:56;25.50;46.20
23691;DHT22;43867;50.836;4.364;2022-07-15T15:26:28;25.50;46.90
23691;DHT22;43867;50.836;4.364;2022-07-15T15:28:57;25.80;46.90
23691;DHT22;43867;50.836;4.364;2022-07-15T15:31:26;25.70;46.90
23691;DHT22;43867;50.836;4.364;2022-07-15T15:33:53;25.90;46.20
23691;DHT22;43867;50.836;4.364;2022-07-15T15:36:19;25.90;46.10
23691;DHT22;43867;50.836;4.364;2022-07-15T15:38:45;26.00;45.90
23691;DHT22;43867;50.836;4.364;2022-07-15T15:41:10;26.00;45.90
23691;DHT22;43867;50.836;4.364;2022-07-15T15:43:38;25.90;45.10
23691;DHT22;43867;50.836;4.364;2022-07-15T15:46:04;25.80;45.50
23691;DHT22;43867;50.836;4.364;2022-07-15T15:48:30;25.70;46.30
23691;DHT22;43867;50.836;4.364;2022-07-15T15:50:56;25.60;46.50
23691;DHT22;43867;50.836;4.364;2022-07-15T15:53:21;25.70;46.70
23691;DHT22;43867;50.836;4.364;2022-07-15T15:55:47;25.50;46.60
23691;DHT22;43867;50.836;4.364;2022-07-15T15:58:13;25.60;46.90
23691;DHT22;43867;50.836;4.364;2022-07-15T16:00:38;25.60;46.80
23691;DHT22;43867;50.836;4.364;2022-07-15T16:03:04;25.50;47.10
23691;DHT22;43867;50.836;4.364;2022-07-15T16:05:30;25.30;47.20
23691;DHT22;43867;50.836;4.364;2022-07-15T16:07:56;25.00;47.20
23691;DHT22;43867;50.836;4.364;2022-07-15T16:10:23;24.80;48.30
23691;DHT22;43867;50.836;4.364;2022-07-15T16:12:50;24.80;47.90
23691;DHT22;43867;50.836;4.364;2022-07-15T16:15:16;24.60;48.00
23691;DHT22;43867;50.836;4.364;2022-07-15T16:17:44;24.70;47.90
23691;DHT22;43867;50.836;4.364;2022-07-15T16:20:09;24.70;48.00